sensor_id;sensor_type;location;lat;lon;timestamp;temperature;humidity
40676;DHT22;26359;48.750;9.314;2024-02-26T00:02:16;8.30;99.90
40676;DHT22;26359;48.750;9.314;2024-02-26T00:04:42;8.30;99.90
40676;DHT22;26359;48.750;9.314;2024-02-26T00:07:07;8.30;99.90
40676;DHT22;26359;48.750;9.314;2024-02-26T00:09:33;8.30;99.90
40676;DHT22;26359;48.750;9.314;2024-02-26T00:12:02;8.20;99.90
40676;DHT22;26359;48.750;9.314;2024-02-26T00:14:29;8.30;99.90
40676;DHT22;26359;48.750;9.314;2024-02-26T00:16:55;8.20;99.90
40676;DHT22;26359;48.750;9.314;2024-02-26T00:19:20;8.20;99.90
40676;DHT22;26359;48.750;9.314;2024-02-26T00:21:46;8.20;99.90
40676;DHT22;26359;48.750;9.314;2024-02-26T00:24:11;8.20;99.90
40676;DHT22;26359;48.750;9.314;2024-02-26T00:26:37;8.20;99.90
40676;DHT22;26359;48.750;9.314;2024-02-26T00:29:02;8.10;99.90
40676;DHT22;26359;48.750;9.314;2024-02-26T00:31:28;8.10;99.90
40676;DHT22;26359;48.750;9.314;2024-02-26T00:33:53;8.10;99.90
40676;DHT22;26359;48.750;9.314;2024-02-26T00:36:19;8.10;99.90
40676;DHT22;26359;48.750;9.314;2024-02-26T00:38:44;8.10;99.90
40676;DHT22;26359;48.750;9.314;2024-02-26T00:41:16;8.10;99.90
40676;DHT22;26359;48.750;9.314;2024-02-26T00:43:41;8.10;99.90
40676;DHT22;26359;48.750;9.314;2024-02-26T00:46:08;8.10;99.90
40676;DHT22;26359;48.750;9.314;2024-02-26T00:48:33;8.00;99.90
40676;DHT22;26359;48.750;9.314;2024-02-26T00:50:59;8.00;99.90
40676;DHT22;26359;48.750;9.314;2024-02-26T00:53:24;8.10;99.90
40676;DHT22;26359;48.750;9.314;2024-02-26T00:55:50;8.00;99.90
40676;DHT22;26359;48.750;9.314;2024-02-26T00:58:16;8.10;99.90
40676;DHT22;26359;48.750;9.314;2024-02-26T01:00:41;8.10;99.90
40676;DHT22;26359;48.750;9.314;2024-02-26T01:03:07;8.10;99.90
40676;DHT22;26359;48.750;9.314;2024-02-26T01:05:33;8.10;99.90
40676;DHT22;26359;48.750;9.314;2024-02-26T01:07:58;8.00;99.90
40676;DHT22;26359;48.750;9.314;2024-02-26T01:10:24;8.00;99.90
40676;DHT22;26359;48.750;9.314;2024-02-26T01:12:50;8.00;99.90
40676;DHT22;26359;48.750;9.314;2024-02-26T01:15:15;8.00;99.90
40676;DHT22;26359;48.750;9.314;2024-02-26T01:17:41;8.00;99.90
40676;DHT22;26359;48.750;9.314;2024-02-26T01:20:07;7.90;99.90
40676;DHT22;26359;48.750;9.314;2024-02-26T01:22:34;7.90;99.90
40676;DHT22;26359;48.750;9.314;2024-02-26T01:24:59;8.00;99.90
40676;DHT22;26359;48.750;9.314;2024-02-26T01:27:25;8.00;99.90
40676;DHT22;26359;48.750;9.314;2024-02-26T01:29:52;8.00;99.90
40676;DHT22;26359;48.750;9.314;2024-02-26T01:32:18;7.90;99.90
40676;DHT22;26359;48.750;9.314;2024-02-26T01:34:43;7.90;99.90
40676;DHT22;26359;48.750;9.314;2024-02-26T01:37:09;7.90;99.90
40676;DHT22;26359;48.750;9.314;2024-02-26T01:39:34;7.90;99.90
40676;DHT22;26359;48.750;9.314;2024-02-26T01:42:01;7.90;99.90
40676;DHT22;26359;48.750;9.314;2024-02-26T01:44:27;7.90;99.90
40676;DHT22;26359;48.750;9.314;2024-02-26T01:46:53;7.80;99.90
40676;DHT22;26359;48.750;9.314;2024-02-26T01:49:19;7.80;99.90
40676;DHT22;26359;48.750;9.314;2024-02-26T01:51:45;7.80;99.90
40676;DHT22;26359;48.750;9.314;2024-02-26T01:54:11;7.80;99.90
40676;DHT22;26359;48.750;9.314;2024-02-26T01:56:39;7.80;99.90
40676;DHT22;26359;48.750;9.314;2024-02-26T01:59:05;7.70;99.90
40676;DHT22;26359;48.750;9.314;2024-02-26T02:01:33;7.80;99.90
40676;DHT22;26359;48.750;9.314;2024-02-26T02:03:59;7.80;99.90
40676;DHT22;26359;48.750;9.314;2024-02-26T02:06:26;7.80;99.90
40676;DHT22;26359;48.750;9.314;2024-02-26T02:08:54;7.80;99.90
40676;DHT22;26359;48.750;9.314;2024-02-26T02:11:20;7.80;99.90
40676;DHT22;26359;48.750;9.314;2024-02-26T02:13:45;7.80;99.90
40676;DHT22;26359;48.750;9.314;2024-02-26T02:16:11;7.80;99.90
40676;DHT22;26359;48.750;9.314;2024-02-26T02:18:37;7.80;99.90
40676;DHT22;26359;48.750;9.314;2024-02-26T02:21:03;7.80;99.90
40676;DHT22;26359;48.750;9.314;2024-02-26T02:23:29;7.80;99.90
40676;DHT22;26359;48.750;9.314;2024-02-26T02:25:56;7.80;99.90
40676;DHT22;26359;48.750;9.314;2024-02-26T02:28:23;7.80;99.90
40676;DHT22;26359;48.750;9.314;2024-02-26T02:30:50;7.80;99.90
40676;DHT22;26359;48.750;9.314;2024-02-26T02:33:16;7.80;99.90
40676;DHT22;26359;48.750;9.314;2024-02-26T02:35:42;7.80;99.90
40676;DHT22;26359;48.750;9.314;2024-02-26T02:38:08;7.80;99.90
40676;DHT22;26359;48.750;9.314;2024-02-26T02:40:33;7.70;99.90
40676;DHT22;26359;48.750;9.314;2024-02-26T02:42:59;7.70;99.90
40676;DHT22;26359;48.750;9.314;2024-02-26T02:45:25;7.70;99.90
40676;DHT22;26359;48.750;9.314;2024-02-26T02:47:51;7.70;99.90
40676;DHT22;26359;48.750;9.314;2024-02-26T02:50:16;7.70;99.90
40676;DHT22;26359;48.750;9.314;2024-02-26T02:52:42;7.70;99.90
40676;DHT22;26359;48.750;9.314;2024-02-26T02:55:07;7.70;99.90
40676;DHT22;26359;48.750;9.314;2024-02-26T02:57:33;7.70;99.90
40676;DHT22;26359;48.750;9.314;2024-02-26T02:59:59;7.70;99.90
40676;DHT22;26359;48.750;9.314;2024-02-26T03:02:24;7.70;99.90
40676;DHT22;26359;48.750;9.314;2024-02-26T03:04:50;7.70;99.90
40676;DHT22;26359;48.750;9.314;2024-02-26T03:07:16;7.70;99.90
40676;DHT22;26359;48.750;9.314;2024-02-26T03:09:42;7.70;99.90
40676;DHT22;26359;48.750;9.314;2024-02-26T03:12:07;7.70;99.90
40676;DHT22;26359;48.750;9.314;2024-02-26T03:14:33;7.60;99.90
40676;DHT22;26359;48.750;9.314;2024-02-26T03:16:58;7.70;99.90
40676;DHT22;26359;48.750;9.314;2024-02-26T03:19:24;7.60;99.90
40676;DHT22;26359;48.750;9.314;2024-02-26T03:21:49;7.60;99.90
40676;DHT22;26359;48.750;9.314;2024-02-26T03:24:15;7.70;99.90
40676;DHT22;26359;48.750;9.314;2024-02-26T03:26:40;7.60;99.90
40676;DHT22;26359;48.750;9.314;2024-02-26T03:29:06;7.70;99.90
40676;DHT22;26359;48.750;9.314;2024-02-26T03:31:31;7.60;99.90
40676;DHT22;26359;48.750;9.314;2024-02-26T03:33:57;7.60;99.90
40676;DHT22;26359;48.750;9.314;2024-02-26T03:36:23;7.60;99.90
40676;DHT22;26359;48.750;9.314;2024-02-26T03:38:48;7.60;99.90
40676;DHT22;26359;48.750;9.314;2024-02-26T03:41:14;7.60;99.90
40676;DHT22;26359;48.750;9.314;2024-02-26T03:43:40;7.60;99.90
40676;DHT22;26359;48.750;9.314;2024-02-26T03:46:09;7.60;99.90
40676;DHT22;26359;48.750;9.314;2024-02-26T03:48:36;7.60;99.90
40676;DHT22;26359;48.750;9.314;2024-02-26T03:51:02;7.60;99.90
40676;DHT22;26359;48.750;9.314;2024-02-26T03:53:28;7.60;99.90
40676;DHT22;26359;48.750;9.314;2024-02-26T03:55:53;7.60;99.90
40676;DHT22;26359;48.750;9.314;2024-02-26T03:58:20;7.60;99.90
40676;DHT22;26359;48.750;9.314;2024-02-26T04:00:46;7.60;99.90
40676;DHT22;26359;48.750;9.314;2024-02-26T04:03:15;7.70;99.90
40676;DHT22;26359;48.750;9.314;2024-02-26T04:05:41;7.60;99.90
40676;DHT22;26359;48.750;9.314;2024-02-26T04:08:06;7.60;99.90
40676;DHT22;26359;48.750;9.314;2024-02-26T04:10:33;7.60;99.90
40676;DHT22;26359;48.750;9.314;2024-02-26T04:13:00;7.60;99.90
40676;DHT22;26359;48.750;9.314;2024-02-26T04:15:26;7.50;99.90
40676;DHT22;26359;48.750;9.314;2024-02-26T04:17:51;7.50;99.90
40676;DHT22;26359;48.750;9.314;2024-02-26T04:20:17;7.50;99.90
40676;DHT22;26359;48.750;9.314;2024-02-26T04:22:42;7.60;99.90
40676;DHT22;26359;48.750;9.314;2024-02-26T04:25:08;7.60;99.90
40676;DHT22;26359;48.750;9.314;2024-02-26T04:27:34;7.60;99.90
40676;DHT22;26359;48.750;9.314;2024-02-26T04:29:59;7.60;99.90
40676;DHT22;26359;48.750;9.314;2024-02-26T04:32:25;7.80;99.90
40676;DHT22;26359;48.750;9.314;2024-02-26T04:34:50;7.70;99.90
40676;DHT22;26359;48.750;9.314;2024-02-26T04:37:16;7.60;99.90
40676;DHT22;26359;48.750;9.314;2024-02-26T04:39:42;7.60;99.90
40676;DHT22;26359;48.750;9.314;2024-02-26T04:42:07;7.50;99.90
40676;DHT22;26359;48.750;9.314;2024-02-26T04:44:33;7.40;99.90
40676;DHT22;26359;48.750;9.314;2024-02-26T04:46:58;7.50;99.90
40676;DHT22;26359;48.750;9.314;2024-02-26T04:49:24;7.40;99.90
40676;DHT22;26359;48.750;9.314;2024-02-26T04:51:49;7.30;99.90
40676;DHT22;26359;48.750;9.314;2024-02-26T04:54:15;7.30;99.90
40676;DHT22;26359;48.750;9.314;2024-02-26T04:56:40;7.30;99.90
40676;DHT22;26359;48.750;9.314;2024-02-26T04:59:06;7.40;99.90
40676;DHT22;26359;48.750;9.314;2024-02-26T05:01:31;7.30;99.90
40676;DHT22;26359;48.750;9.314;2024-02-26T05:03:57;7.30;99.90
40676;DHT22;26359;48.750;9.314;2024-02-26T05:06:22;7.30;99.90
40676;DHT22;26359;48.750;9.314;2024-02-26T05:08:48;7.30;99.90
40676;DHT22;26359;48.750;9.314;2024-02-26T05:11:13;7.30;99.90
40676;DHT22;26359;48.750;9.314;2024-02-26T05:13:39;7.30;99.90
40676;DHT22;26359;48.750;9.314;2024-02-26T05:16:04;7.30;99.90
40676;DHT22;26359;48.750;9.314;2024-02-26T05:18:30;7.40;99.90
40676;DHT22;26359;48.750;9.314;2024-02-26T05:20:56;7.40;99.90
40676;DHT22;26359;48.750;9.314;2024-02-26T05:23:21;7.40;99.90
40676;DHT22;26359;48.750;9.314;2024-02-26T05:25:48;7.30;99.90
40676;DHT22;26359;48.750;9.314;2024-02-26T05:28:14;7.40;99.90
40676;DHT22;26359;48.750;9.314;2024-02-26T05:30:45;7.40;99.90
40676;DHT22;26359;48.750;9.314;2024-02-26T05:33:11;7.30;99.90
40676;DHT22;26359;48.750;9.314;2024-02-26T05:35:37;7.40;99.90
40676;DHT22;26359;48.750;9.314;2024-02-26T05:38:03;7.30;99.90
40676;DHT22;26359;48.750;9.314;2024-02-26T05:40:29;7.30;99.90
40676;DHT22;26359;48.750;9.314;2024-02-26T05:42:55;7.30;99.90
40676;DHT22;26359;48.750;9.314;2024-02-26T05:45:21;7.30;99.90
40676;DHT22;26359;48.750;9.314;2024-02-26T05:47:47;7.30;99.90
40676;DHT22;26359;48.750;9.314;2024-02-26T05:50:13;7.40;99.90
40676;DHT22;26359;48.750;9.314;2024-02-26T05:52:40;7.40;99.90
40676;DHT22;26359;48.750;9.314;2024-02-26T05:55:06;7.30;99.90
40676;DHT22;26359;48.750;9.314;2024-02-26T05:57:33;7.30;99.90
40676;DHT22;26359;48.750;9.314;2024-02-26T05:59:59;7.20;99.90
40676;DHT22;26359;48.750;9.314;2024-02-26T06:02:29;7.20;99.90
40676;DHT22;26359;48.750;9.314;2024-02-26T06:04:54;7.30;99.90
40676;DHT22;26359;48.750;9.314;2024-02-26T06:07:20;7.20;99.90
40676;DHT22;26359;48.750;9.314;2024-02-26T06:09:45;7.20;99.90
40676;DHT22;26359;48.750;9.314;2024-02-26T06:12:11;7.20;99.90
40676;DHT22;26359;48.750;9.314;2024-02-26T06:14:36;7.20;99.90
40676;DHT22;26359;48.750;9.314;2024-02-26T06:17:02;7.20;99.90
40676;DHT22;26359;48.750;9.314;2024-02-26T06:19:27;7.20;99.90
40676;DHT22;26359;48.750;9.314;2024-02-26T06:21:53;7.10;99.90
40676;DHT22;26359;48.750;9.314;2024-02-26T06:24:18;7.10;99.90
40676;DHT22;26359;48.750;9.314;2024-02-26T06:26:46;7.10;99.90
40676;DHT22;26359;48.750;9.314;2024-02-26T06:29:11;7.20;99.90
40676;DHT22;26359;48.750;9.314;2024-02-26T06:31:37;7.20;99.90
40676;DHT22;26359;48.750;9.314;2024-02-26T06:34:02;7.10;99.90
40676;DHT22;26359;48.750;9.314;2024-02-26T06:36:28;7.20;99.90
40676;DHT22;26359;48.750;9.314;2024-02-26T06:38:54;7.10;99.90
40676;DHT22;26359;48.750;9.314;2024-02-26T06:41:20;7.10;99.90
40676;DHT22;26359;48.750;9.314;2024-02-26T06:43:45;7.10;99.90
40676;DHT22;26359;48.750;9.314;2024-02-26T06:46:11;7.20;99.90
40676;DHT22;26359;48.750;9.314;2024-02-26T06:48:37;7.10;99.90
40676;DHT22;26359;48.750;9.314;2024-02-26T06:51:02;7.10;99.90
40676;DHT22;26359;48.750;9.314;2024-02-26T06:53:28;7.10;99.90
40676;DHT22;26359;48.750;9.314;2024-02-26T06:55:53;7.20;99.90
40676;DHT22;26359;48.750;9.314;2024-02-26T06:58:19;7.20;99.90
40676;DHT22;26359;48.750;9.314;2024-02-26T07:00:44;7.30;99.90
40676;DHT22;26359;48.750;9.314;2024-02-26T07:03:11;7.30;99.90
40676;DHT22;26359;48.750;9.314;2024-02-26T07:05:37;7.30;99.90
40676;DHT22;26359;48.750;9.314;2024-02-26T07:08:02;7.40;99.90
40676;DHT22;26359;48.750;9.314;2024-02-26T07:10:28;7.40;99.90
40676;DHT22;26359;48.750;9.314;2024-02-26T07:12:53;7.40;99.90
40676;DHT22;26359;48.750;9.314;2024-02-26T07:15:19;7.40;99.90
40676;DHT22;26359;48.750;9.314;2024-02-26T07:17:44;7.40;99.90
40676;DHT22;26359;48.750;9.314;2024-02-26T07:20:13;7.50;99.90
40676;DHT22;26359;48.750;9.314;2024-02-26T07:22:39;7.40;99.90
40676;DHT22;26359;48.750;9.314;2024-02-26T07:25:05;7.40;99.90
40676;DHT22;26359;48.750;9.314;2024-02-26T07:27:33;7.40;99.90
40676;DHT22;26359;48.750;9.314;2024-02-26T07:29:58;7.40;99.90
40676;DHT22;26359;48.750;9.314;2024-02-26T07:32:24;7.50;99.90
40676;DHT22;26359;48.750;9.314;2024-02-26T07:34:49;7.50;99.90
40676;DHT22;26359;48.750;9.314;2024-02-26T07:37:15;7.50;99.90
40676;DHT22;26359;48.750;9.314;2024-02-26T07:39:40;7.60;99.90
40676;DHT22;26359;48.750;9.314;2024-02-26T07:42:06;7.80;99.90
40676;DHT22;26359;48.750;9.314;2024-02-26T07:44:33;8.00;99.90
40676;DHT22;26359;48.750;9.314;2024-02-26T07:46:58;8.10;99.90
40676;DHT22;26359;48.750;9.314;2024-02-26T07:49:24;8.20;99.90
40676;DHT22;26359;48.750;9.314;2024-02-26T07:51:49;8.30;99.90
40676;DHT22;26359;48.750;9.314;2024-02-26T07:54:15;8.40;99.90
40676;DHT22;26359;48.750;9.314;2024-02-26T07:56:41;8.40;99.90
40676;DHT22;26359;48.750;9.314;2024-02-26T07:59:07;8.50;99.90
40676;DHT22;26359;48.750;9.314;2024-02-26T08:01:33;8.50;99.90
40676;DHT22;26359;48.750;9.314;2024-02-26T08:03:59;8.30;99.90
40676;DHT22;26359;48.750;9.314;2024-02-26T08:06:25;8.20;99.90
40676;DHT22;26359;48.750;9.314;2024-02-26T08:08:50;8.10;99.90
40676;DHT22;26359;48.750;9.314;2024-02-26T08:11:16;8.10;99.90
40676;DHT22;26359;48.750;9.314;2024-02-26T08:13:42;8.10;99.90
40676;DHT22;26359;48.750;9.314;2024-02-26T08:16:07;8.10;99.90
40676;DHT22;26359;48.750;9.314;2024-02-26T08:18:33;8.10;99.90
40676;DHT22;26359;48.750;9.314;2024-02-26T08:20:58;8.10;99.90
40676;DHT22;26359;48.750;9.314;2024-02-26T08:23:24;8.10;99.90
40676;DHT22;26359;48.750;9.314;2024-02-26T08:25:50;8.10;99.90
40676;DHT22;26359;48.750;9.314;2024-02-26T08:28:16;8.10;99.90
40676;DHT22;26359;48.750;9.314;2024-02-26T08:30:43;8.10;99.90
40676;DHT22;26359;48.750;9.314;2024-02-26T08:33:09;8.00;99.90
40676;DHT22;26359;48.750;9.314;2024-02-26T08:35:35;8.10;99.90
40676;DHT22;26359;48.750;9.314;2024-02-26T08:38:01;8.10;99.90
40676;DHT22;26359;48.750;9.314;2024-02-26T08:40:26;8.10;99.90
40676;DHT22;26359;48.750;9.314;2024-02-26T08:42:52;8.10;99.90
40676;DHT22;26359;48.750;9.314;2024-02-26T08:45:17;8.10;99.90
40676;DHT22;26359;48.750;9.314;2024-02-26T08:47:45;8.10;99.90
40676;DHT22;26359;48.750;9.314;2024-02-26T08:50:11;8.20;99.90
40676;DHT22;26359;48.750;9.314;2024-02-26T08:52:38;8.20;99.90
40676;DHT22;26359;48.750;9.314;2024-02-26T08:55:04;8.30;99.90
40676;DHT22;26359;48.750;9.314;2024-02-26T08:57:31;8.40;99.90
40676;DHT22;26359;48.750;9.314;2024-02-26T08:59:58;8.50;99.90
40676;DHT22;26359;48.750;9.314;2024-02-26T09:02:24;8.50;99.90
40676;DHT22;26359;48.750;9.314;2024-02-26T09:04:49;8.50;99.90
40676;DHT22;26359;48.750;9.314;2024-02-26T09:07:16;8.50;99.90
40676;DHT22;26359;48.750;9.314;2024-02-26T09:09:42;8.50;99.90
40676;DHT22;26359;48.750;9.314;2024-02-26T09:12:07;8.50;99.90
40676;DHT22;26359;48.750;9.314;2024-02-26T09:14:33;8.60;99.90
40676;DHT22;26359;48.750;9.314;2024-02-26T09:16:58;8.60;99.90
40676;DHT22;26359;48.750;9.314;2024-02-26T09:19:25;8.60;99.90
40676;DHT22;26359;48.750;9.314;2024-02-26T09:21:51;8.70;99.90
40676;DHT22;26359;48.750;9.314;2024-02-26T09:24:17;8.70;99.90
40676;DHT22;26359;48.750;9.314;2024-02-26T09:26:42;8.80;99.90
40676;DHT22;26359;48.750;9.314;2024-02-26T09:29:08;8.90;99.90
40676;DHT22;26359;48.750;9.314;2024-02-26T09:31:34;8.90;99.90
40676;DHT22;26359;48.750;9.314;2024-02-26T09:33:59;9.00;99.90
40676;DHT22;26359;48.750;9.314;2024-02-26T09:36:25;9.10;99.90
40676;DHT22;26359;48.750;9.314;2024-02-26T09:38:50;9.10;99.90
40676;DHT22;26359;48.750;9.314;2024-02-26T09:41:16;9.10;99.90
40676;DHT22;26359;48.750;9.314;2024-02-26T09:43:44;9.00;99.90
40676;DHT22;26359;48.750;9.314;2024-02-26T09:46:10;9.00;99.90
40676;DHT22;26359;48.750;9.314;2024-02-26T09:48:37;9.00;99.90
40676;DHT22;26359;48.750;9.314;2024-02-26T09:51:03;9.00;99.90
40676;DHT22;26359;48.750;9.314;2024-02-26T09:53:29;9.00;99.90
40676;DHT22;26359;48.750;9.314;2024-02-26T09:55:57;9.00;99.90
40676;DHT22;26359;48.750;9.314;2024-02-26T09:58:23;9.00;99.90
40676;DHT22;26359;48.750;9.314;2024-02-26T10:00:55;9.10;99.90
40676;DHT22;26359;48.750;9.314;2024-02-26T10:03:25;9.20;99.90
40676;DHT22;26359;48.750;9.314;2024-02-26T10:05:53;9.20;99.90
40676;DHT22;26359;48.750;9.314;2024-02-26T10:08:21;9.30;99.90
40676;DHT22;26359;48.750;9.314;2024-02-26T10:10:47;9.40;99.90
40676;DHT22;26359;48.750;9.314;2024-02-26T10:13:14;9.60;99.90
40676;DHT22;26359;48.750;9.314;2024-02-26T10:15:39;9.80;99.90
40676;DHT22;26359;48.750;9.314;2024-02-26T10:18:05;10.00;99.90
40676;DHT22;26359;48.750;9.314;2024-02-26T10:20:31;10.30;99.90
40676;DHT22;26359;48.750;9.314;2024-02-26T10:22:57;10.50;99.90
40676;DHT22;26359;48.750;9.314;2024-02-26T10:25:23;10.70;99.90
40676;DHT22;26359;48.750;9.314;2024-02-26T10:27:49;10.90;99.90
40676;DHT22;26359;48.750;9.314;2024-02-26T10:30:19;11.10;99.90
40676;DHT22;26359;48.750;9.314;2024-02-26T10:32:45;11.20;99.90
40676;DHT22;26359;48.750;9.314;2024-02-26T10:35:13;11.10;99.90
40676;DHT22;26359;48.750;9.314;2024-02-26T10:37:40;11.10;99.90
40676;DHT22;26359;48.750;9.314;2024-02-26T10:40:10;11.20;99.90
40676;DHT22;26359;48.750;9.314;2024-02-26T10:42:36;11.40;99.90
40676;DHT22;26359;48.750;9.314;2024-02-26T10:45:01;11.70;99.90
40676;DHT22;26359;48.750;9.314;2024-02-26T10:47:28;12.00;99.90
40676;DHT22;26359;48.750;9.314;2024-02-26T10:49:54;12.40;99.90
40676;DHT22;26359;48.750;9.314;2024-02-26T10:52:21;12.40;99.90
40676;DHT22;26359;48.750;9.314;2024-02-26T10:54:49;12.40;99.90
40676;DHT22;26359;48.750;9.314;2024-02-26T10:57:15;12.40;99.90
40676;DHT22;26359;48.750;9.314;2024-02-26T10:59:44;12.40;99.90
40676;DHT22;26359;48.750;9.314;2024-02-26T11:02:10;12.40;99.90
40676;DHT22;26359;48.750;9.314;2024-02-26T11:04:37;12.40;99.90
40676;DHT22;26359;48.750;9.314;2024-02-26T11:07:04;12.40;99.90
40676;DHT22;26359;48.750;9.314;2024-02-26T11:09:31;12.40;99.90
40676;DHT22;26359;48.750;9.314;2024-02-26T11:11:59;12.40;99.90
40676;DHT22;26359;48.750;9.314;2024-02-26T11:14:26;12.40;99.90
40676;DHT22;26359;48.750;9.314;2024-02-26T11:16:52;12.40;99.90
40676;DHT22;26359;48.750;9.314;2024-02-26T11:19:18;12.30;99.90
40676;DHT22;26359;48.750;9.314;2024-02-26T11:21:44;12.20;99.90
40676;DHT22;26359;48.750;9.314;2024-02-26T11:24:12;12.10;99.90
40676;DHT22;26359;48.750;9.314;2024-02-26T11:26:48;12.20;99.90
40676;DHT22;26359;48.750;9.314;2024-02-26T11:29:19;12.30;99.90
40676;DHT22;26359;48.750;9.314;2024-02-26T11:31:46;12.50;99.90
40676;DHT22;26359;48.750;9.314;2024-02-26T11:34:12;12.50;99.90
40676;DHT22;26359;48.750;9.314;2024-02-26T11:36:38;12.50;99.90
40676;DHT22;26359;48.750;9.314;2024-02-26T11:39:04;12.40;99.90
40676;DHT22;26359;48.750;9.314;2024-02-26T11:41:31;12.50;99.90
40676;DHT22;26359;48.750;9.314;2024-02-26T11:44:06;12.50;99.90
40676;DHT22;26359;48.750;9.314;2024-02-26T11:46:33;12.50;99.90
40676;DHT22;26359;48.750;9.314;2024-02-26T11:51:54;12.50;99.90
40676;DHT22;26359;48.750;9.314;2024-02-26T12:00:02;12.60;99.90
40676;DHT22;26359;48.750;9.314;2024-02-26T12:02:41;12.70;99.90
40676;DHT22;26359;48.750;9.314;2024-02-26T12:05:11;12.90;99.90
40676;DHT22;26359;48.750;9.314;2024-02-26T12:07:40;13.00;99.90
40676;DHT22;26359;48.750;9.314;2024-02-26T12:10:38;13.10;99.90
40676;DHT22;26359;48.750;9.314;2024-02-26T12:13:15;13.30;99.90
40676;DHT22;26359;48.750;9.314;2024-02-26T12:15:43;13.60;99.90
40676;DHT22;26359;48.750;9.314;2024-02-26T12:18:10;13.60;99.90
40676;DHT22;26359;48.750;9.314;2024-02-26T12:20:37;13.90;99.90
40676;DHT22;26359;48.750;9.314;2024-02-26T12:23:03;14.20;99.90
40676;DHT22;26359;48.750;9.314;2024-02-26T12:25:33;14.50;99.90
40676;DHT22;26359;48.750;9.314;2024-02-26T12:27:59;14.40;99.90
40676;DHT22;26359;48.750;9.314;2024-02-26T12:30:25;14.60;99.90
40676;DHT22;26359;48.750;9.314;2024-02-26T12:32:52;14.90;99.90
40676;DHT22;26359;48.750;9.314;2024-02-26T12:35:22;15.00;99.90
40676;DHT22;26359;48.750;9.314;2024-02-26T12:37:48;15.20;99.90
40676;DHT22;26359;48.750;9.314;2024-02-26T12:40:14;15.20;99.90
40676;DHT22;26359;48.750;9.314;2024-02-26T12:42:39;14.70;99.90
40676;DHT22;26359;48.750;9.314;2024-02-26T12:45:07;14.50;99.90
40676;DHT22;26359;48.750;9.314;2024-02-26T12:47:45;14.50;99.90
40676;DHT22;26359;48.750;9.314;2024-02-26T12:50:15;14.60;99.90
40676;DHT22;26359;48.750;9.314;2024-02-26T12:52:45;14.60;99.90
40676;DHT22;26359;48.750;9.314;2024-02-26T12:55:14;14.70;99.90
40676;DHT22;26359;48.750;9.314;2024-02-26T12:57:41;14.90;99.90
40676;DHT22;26359;48.750;9.314;2024-02-26T13:00:13;15.00;99.90
40676;DHT22;26359;48.750;9.314;2024-02-26T13:02:40;15.20;99.90
40676;DHT22;26359;48.750;9.314;2024-02-26T13:05:08;15.20;99.90
40676;DHT22;26359;48.750;9.314;2024-02-26T13:07:40;15.30;99.90
40676;DHT22;26359;48.750;9.314;2024-02-26T13:10:06;15.20;99.90
40676;DHT22;26359;48.750;9.314;2024-02-26T13:12:32;15.10;99.90
40676;DHT22;26359;48.750;9.314;2024-02-26T13:15:02;15.10;99.90
40676;DHT22;26359;48.750;9.314;2024-02-26T13:17:31;15.00;99.90
40676;DHT22;26359;48.750;9.314;2024-02-26T13:19:57;14.90;99.90
40676;DHT22;26359;48.750;9.314;2024-02-26T13:22:22;14.90;99.90
40676;DHT22;26359;48.750;9.314;2024-02-26T13:24:59;14.90;99.90
40676;DHT22;26359;48.750;9.314;2024-02-26T13:27:25;14.70;99.90
40676;DHT22;26359;48.750;9.314;2024-02-26T13:30:11;14.60;99.90
40676;DHT22;26359;48.750;9.314;2024-02-26T13:32:38;14.70;99.90
40676;DHT22;26359;48.750;9.314;2024-02-26T13:35:11;14.70;99.90
40676;DHT22;26359;48.750;9.314;2024-02-26T13:37:37;14.80;99.90
40676;DHT22;26359;48.750;9.314;2024-02-26T13:40:08;14.70;99.90
40676;DHT22;26359;48.750;9.314;2024-02-26T13:42:35;14.80;99.90
40676;DHT22;26359;48.750;9.314;2024-02-26T13:45:01;14.70;99.90
40676;DHT22;26359;48.750;9.314;2024-02-26T13:47:26;14.70;99.90
40676;DHT22;26359;48.750;9.314;2024-02-26T13:49:52;14.70;99.90
40676;DHT22;26359;48.750;9.314;2024-02-26T13:52:18;14.60;99.90
40676;DHT22;26359;48.750;9.314;2024-02-26T13:54:45;14.60;99.90
40676;DHT22;26359;48.750;9.314;2024-02-26T13:57:11;14.60;99.90
40676;DHT22;26359;48.750;9.314;2024-02-26T13:59:37;14.70;99.90
40676;DHT22;26359;48.750;9.314;2024-02-26T14:02:02;14.70;99.90
40676;DHT22;26359;48.750;9.314;2024-02-26T14:04:28;14.80;99.90
40676;DHT22;26359;48.750;9.314;2024-02-26T14:06:53;14.90;99.90
40676;DHT22;26359;48.750;9.314;2024-02-26T14:09:19;15.10;99.90
40676;DHT22;26359;48.750;9.314;2024-02-26T14:11:45;15.10;99.90
40676;DHT22;26359;48.750;9.314;2024-02-26T14:14:11;15.30;99.90
40676;DHT22;26359;48.750;9.314;2024-02-26T14:16:36;15.30;99.90
40676;DHT22;26359;48.750;9.314;2024-02-26T14:19:02;15.50;99.90
40676;DHT22;26359;48.750;9.314;2024-02-26T14:21:28;15.50;99.90
40676;DHT22;26359;48.750;9.314;2024-02-26T14:23:55;15.60;99.90
40676;DHT22;26359;48.750;9.314;2024-02-26T14:26:21;15.50;99.90
40676;DHT22;26359;48.750;9.314;2024-02-26T14:28:47;15.40;99.90
40676;DHT22;26359;48.750;9.314;2024-02-26T14:31:13;15.30;99.90
40676;DHT22;26359;48.750;9.314;2024-02-26T14:33:39;15.20;99.90
40676;DHT22;26359;48.750;9.314;2024-02-26T14:36:07;15.20;99.90
40676;DHT22;26359;48.750;9.314;2024-02-26T14:38:33;15.30;99.90
40676;DHT22;26359;48.750;9.314;2024-02-26T14:40:59;15.50;99.90
40676;DHT22;26359;48.750;9.314;2024-02-26T14:43:24;15.70;99.90
40676;DHT22;26359;48.750;9.314;2024-02-26T14:45:50;15.90;99.90
40676;DHT22;26359;48.750;9.314;2024-02-26T14:48:15;15.90;99.90
40676;DHT22;26359;48.750;9.314;2024-02-26T14:50:41;15.80;99.90
40676;DHT22;26359;48.750;9.314;2024-02-26T14:53:06;15.60;99.90
40676;DHT22;26359;48.750;9.314;2024-02-26T14:55:32;15.50;99.90
40676;DHT22;26359;48.750;9.314;2024-02-26T14:57:58;15.20;99.90
40676;DHT22;26359;48.750;9.314;2024-02-26T15:00:23;15.20;99.90
40676;DHT22;26359;48.750;9.314;2024-02-26T15:02:49;15.10;99.90
40676;DHT22;26359;48.750;9.314;2024-02-26T15:05:14;15.10;99.90
40676;DHT22;26359;48.750;9.314;2024-02-26T15:07:42;15.00;99.90
40676;DHT22;26359;48.750;9.314;2024-02-26T15:10:08;14.90;99.90
40676;DHT22;26359;48.750;9.314;2024-02-26T15:12:33;14.90;99.90
40676;DHT22;26359;48.750;9.314;2024-02-26T15:14:59;14.70;99.90
40676;DHT22;26359;48.750;9.314;2024-02-26T15:17:27;14.60;99.90
40676;DHT22;26359;48.750;9.314;2024-02-26T15:19:57;14.40;99.90
40676;DHT22;26359;48.750;9.314;2024-02-26T15:22:24;14.30;99.90
40676;DHT22;26359;48.750;9.314;2024-02-26T15:24:50;14.20;99.90
40676;DHT22;26359;48.750;9.314;2024-02-26T15:27:15;14.10;99.90
40676;DHT22;26359;48.750;9.314;2024-02-26T15:29:42;14.00;99.90
40676;DHT22;26359;48.750;9.314;2024-02-26T15:32:14;13.90;99.90
40676;DHT22;26359;48.750;9.314;2024-02-26T15:34:40;13.80;99.90
40676;DHT22;26359;48.750;9.314;2024-02-26T15:37:05;13.80;99.90
40676;DHT22;26359;48.750;9.314;2024-02-26T15:39:31;13.60;99.90
40676;DHT22;26359;48.750;9.314;2024-02-26T15:41:56;13.60;99.90
40676;DHT22;26359;48.750;9.314;2024-02-26T15:44:22;13.50;99.90